sensor_id;sensor_type;location;lat;lon;timestamp;pressure;altitude;pressure_sealevel;temperature;humidity
74075;BME280;62428;51.412;5.432;2023-02-19T00:01:14;101686.16;;;9.50;100.00
74075;BME280;62428;51.412;5.432;2023-02-19T00:03:41;101687.78;;;9.51;100.00
74075;BME280;62428;51.412;5.432;2023-02-19T00:06:09;101691.28;;;9.52;100.00
74075;BME280;62428;51.412;5.432;2023-02-19T00:08:36;101685.91;;;9.52;100.00
74075;BME280;62428;51.412;5.432;2023-02-19T00:11:06;101691.00;;;9.53;100.00
74075;BME280;62428;51.412;5.432;2023-02-19T00:13:36;101689.91;;;9.54;100.00
74075;BME280;62428;51.412;5.432;2023-02-19T00:16:06;101689.91;;;9.54;100.00
74075;BME280;62428;51.412;5.432;2023-02-19T00:18:32;101687.25;;;9.54;100.00
74075;BME280;62428;51.412;5.432;2023-02-19T00:20:57;101695.03;;;9.56;100.00
74075;BME280;62428;51.412;5.432;2023-02-19T00:23:22;101688.88;;;9.55;100.00
74075;BME280;62428;51.412;5.432;2023-02-19T00:25:48;101693.69;;;9.53;100.00
74075;BME280;62428;51.412;5.432;2023-02-19T00:28:13;101689.13;;;9.54;100.00
74075;BME280;62428;51.412;5.432;2023-02-19T00:30:38;101686.44;;;9.54;100.00
74075;BME280;62428;51.412;5.432;2023-02-19T00:33:04;101688.31;;;9.53;100.00
74075;BME280;62428;51.412;5.432;2023-02-19T00:35:32;101694.50;;;9.54;99.85
74075;BME280;62428;51.412;5.432;2023-02-19T00:37:58;101695.28;;;9.54;99.97
74075;BME280;62428;51.412;5.432;2023-02-19T00:40:23;101688.88;;;9.55;99.20
74075;BME280;62428;51.412;5.432;2023-02-19T00:42:50;101698.50;;;9.56;98.96
74075;BME280;62428;51.412;5.432;2023-02-19T00:45:15;101692.88;;;9.58;98.61
74075;BME280;62428;51.412;5.432;2023-02-19T00:47:41;101697.72;;;9.56;98.88
74075;BME280;62428;51.412;5.432;2023-02-19T00:50:06;101688.59;;;9.57;98.60
74075;BME280;62428;51.412;5.432;2023-02-19T00:52:32;101695.03;;;9.56;98.19
74075;BME280;62428;51.412;5.432;2023-02-19T00:54:57;101691.56;;;9.55;98.21
74075;BME280;62428;51.412;5.432;2023-02-19T00:57:22;101695.03;;;9.56;98.27
74075;BME280;62428;51.412;5.432;2023-02-19T00:59:47;101697.72;;;9.56;98.48
74075;BME280;62428;51.412;5.432;2023-02-19T01:02:13;101701.47;;;9.55;98.35
74075;BME280;62428;51.412;5.432;2023-02-19T01:04:38;101694.22;;;9.55;97.83
74075;BME280;62428;51.412;5.432;2023-02-19T01:07:03;101702.28;;;9.55;97.65
74075;BME280;62428;51.412;5.432;2023-02-19T01:09:29;101703.06;;;9.56;97.17
74075;BME280;62428;51.412;5.432;2023-02-19T01:11:54;101706.31;;;9.58;96.89
74075;BME280;62428;51.412;5.432;2023-02-19T01:14:19;101694.78;;;9.57;97.04
74075;BME280;62428;51.412;5.432;2023-02-19T01:16:45;101704.44;;;9.58;96.97
74075;BME280;62428;51.412;5.432;2023-02-19T01:19:10;101704.72;;;9.57;96.61
74075;BME280;62428;51.412;5.432;2023-02-19T01:21:35;101706.31;;;9.58;96.81
74075;BME280;62428;51.412;5.432;2023-02-19T01:24:01;101714.34;;;9.58;96.69
74075;BME280;62428;51.412;5.432;2023-02-19T01:26:29;101714.34;;;9.58;96.84
74075;BME280;62428;51.412;5.432;2023-02-19T01:28:55;101714.09;;;9.59;96.11
74075;BME280;62428;51.412;5.432;2023-02-19T01:31:23;101715.19;;;9.58;96.04
74075;BME280;62428;51.412;5.432;2023-02-19T01:33:51;101715.72;;;9.60;95.94
74075;BME280;62428;51.412;5.432;2023-02-19T01:36:17;101717.31;;;9.61;95.86
74075;BME280;62428;51.412;5.432;2023-02-19T01:38:43;101720.00;;;9.61;95.67
74075;BME280;62428;51.412;5.432;2023-02-19T01:41:11;101720.81;;;9.62;95.31
74075;BME280;62428;51.412;5.432;2023-02-19T01:46:43;101732.91;;;9.65;95.06
74075;BME280;62428;51.412;5.432;2023-02-19T01:49:28;101732.09;;;9.64;95.22
74075;BME280;62428;51.412;5.432;2023-02-19T01:52:05;101730.47;;;9.63;95.17
74075;BME280;62428;51.412;5.432;2023-02-19T01:54:35;101738.53;;;9.63;94.85
74075;BME280;62428;51.412;5.432;2023-02-19T01:57:05;101731.56;;;9.62;94.99
74075;BME280;62428;51.412;5.432;2023-02-19T01:59:32;101728.03;;;9.61;94.82
74075;BME280;62428;51.412;5.432;2023-02-19T02:01:58;101725.63;;;9.60;94.53
74075;BME280;62428;51.412;5.432;2023-02-19T02:04:29;101729.13;;;9.60;94.32
74075;BME280;62428;51.412;5.432;2023-02-19T02:06:55;101717.56;;;9.60;93.89
74075;BME280;62428;51.412;5.432;2023-02-19T02:09:25;101722.69;;;9.61;93.80
74075;BME280;62428;51.412;5.432;2023-02-19T02:12:10;101726.44;;;9.60;93.63
74075;BME280;62428;51.412;5.432;2023-02-19T02:14:39;101719.47;;;9.59;93.66
74075;BME280;62428;51.412;5.432;2023-02-19T02:17:26;101716.25;;;9.62;93.96
74075;BME280;62428;51.412;5.432;2023-02-19T02:23:02;101713.84;;;9.61;93.47
74075;BME280;62428;51.412;5.432;2023-02-19T02:33:48;101724.81;;;9.59;93.52
74075;BME280;62428;51.412;5.432;2023-02-19T02:36:30;101732.88;;;9.59;93.35
74075;BME280;62428;51.412;5.432;2023-02-19T02:38:56;101731.28;;;9.58;93.18
74075;BME280;62428;51.412;5.432;2023-02-19T02:41:23;101730.72;;;9.56;93.33
74075;BME280;62428;51.412;5.432;2023-02-19T02:43:49;101731.78;;;9.55;93.05
74075;BME280;62428;51.412;5.432;2023-02-19T02:46:19;101734.72;;;9.54;93.27
74075;BME280;62428;51.412;5.432;2023-02-19T02:48:48;101734.72;;;9.54;93.19
74075;BME280;62428;51.412;5.432;2023-02-19T02:51:28;101735.00;;;9.52;93.37
74075;BME280;62428;51.412;5.432;2023-02-19T02:56:50;101742.22;;;9.47;94.28
74075;BME280;62428;51.412;5.432;2023-02-19T02:59:18;101738.69;;;9.41;94.36
74075;BME280;62428;51.412;5.432;2023-02-19T03:01:49;101746.22;;;9.39;94.92
74075;BME280;62428;51.412;5.432;2023-02-19T03:07:45;101753.13;;;9.30;95.50
74075;BME280;62428;51.412;5.432;2023-02-19T03:10:18;101752.31;;;9.24;95.60
74075;BME280;62428;51.412;5.432;2023-02-19T03:12:46;101759.53;;;9.23;95.70
74075;BME280;62428;51.412;5.432;2023-02-19T03:15:39;101750.13;;;9.21;95.83
74075;BME280;62428;51.412;5.432;2023-02-19T03:18:26;101762.19;;;9.18;96.08
74075;BME280;62428;51.412;5.432;2023-02-19T03:21:16;101764.34;;;9.16;95.67
74075;BME280;62428;51.412;5.432;2023-02-19T03:23:44;101764.59;;;9.15;95.52
74075;BME280;62428;51.412;5.432;2023-02-19T03:26:30;101753.59;;;9.16;95.26
74075;BME280;62428;51.412;5.432;2023-02-19T03:28:58;101763.75;;;9.14;95.45
74075;BME280;62428;51.412;5.432;2023-02-19T03:31:45;101766.44;;;9.14;95.41
74075;BME280;62428;51.412;5.432;2023-02-19T03:34:15;101763.22;;;9.12;95.20
74075;BME280;62428;51.412;5.432;2023-02-19T03:36:45;101763.22;;;9.12;94.98
74075;BME280;62428;51.412;5.432;2023-02-19T03:39:16;101763.75;;;9.09;95.07
74075;BME280;62428;51.412;5.432;2023-02-19T03:41:49;101767.22;;;9.10;95.40
74075;BME280;62428;51.412;5.432;2023-02-19T03:47:18;101769.13;;;9.09;94.86
74075;BME280;62428;51.412;5.432;2023-02-19T03:55:16;101781.44;;;9.10;93.94
74075;BME280;62428;51.412;5.432;2023-02-19T03:57:52;101786.78;;;9.10;93.97
74075;BME280;62428;51.412;5.432;2023-02-19T04:00:29;101793.25;;;9.09;94.06
74075;BME280;62428;51.412;5.432;2023-02-19T04:03:07;101792.66;;;9.07;94.79
74075;BME280;62428;51.412;5.432;2023-02-19T04:05:40;101793.50;;;9.08;94.39
74075;BME280;62428;51.412;5.432;2023-02-19T04:08:14;101804.22;;;9.08;94.23
74075;BME280;62428;51.412;5.432;2023-02-19T04:10:40;101810.63;;;9.07;93.84
74075;BME280;62428;51.412;5.432;2023-02-19T04:13:18;101805.28;;;9.07;93.88
74075;BME280;62428;51.412;5.432;2023-02-19T04:15:47;101821.88;;;9.03;93.97
74075;BME280;62428;51.412;5.432;2023-02-19T04:18:17;101813.00;;;9.03;93.73
74075;BME280;62428;51.412;5.432;2023-02-19T04:20:46;101826.66;;;9.01;93.58
74075;BME280;62428;51.412;5.432;2023-02-19T04:23:13;101813.84;;;9.03;93.34
74075;BME280;62428;51.412;5.432;2023-02-19T04:25:43;101820.50;;;9.01;93.64
74075;BME280;62428;51.412;5.432;2023-02-19T04:28:12;101828.56;;;9.01;93.03
74075;BME280;62428;51.412;5.432;2023-02-19T04:30:37;101824.00;;;9.01;93.14
74075;BME280;62428;51.412;5.432;2023-02-19T04:33:02;101825.06;;;9.00;93.11
74075;BME280;62428;51.412;5.432;2023-02-19T04:35:28;101828.81;;;8.99;93.27
74075;BME280;62428;51.412;5.432;2023-02-19T04:37:53;101834.16;;;8.99;93.23
74075;BME280;62428;51.412;5.432;2023-02-19T04:40:18;101836.28;;;8.97;93.20
74075;BME280;62428;51.412;5.432;2023-02-19T04:42:44;101844.34;;;8.97;93.42
74075;BME280;62428;51.412;5.432;2023-02-19T04:45:09;101844.34;;;8.97;93.30
74075;BME280;62428;51.412;5.432;2023-02-19T04:47:34;101853.47;;;8.96;93.70
74075;BME280;62428;51.412;5.432;2023-02-19T04:49:59;101862.31;;;8.97;93.74
74075;BME280;62428;51.412;5.432;2023-02-19T04:52:25;101863.34;;;8.96;93.62
74075;BME280;62428;51.412;5.432;2023-02-19T04:54:50;101869.78;;;8.95;93.76
74075;BME280;62428;51.412;5.432;2023-02-19T04:57:16;101873.28;;;8.95;93.37
74075;BME280;62428;51.412;5.432;2023-02-19T04:59:41;101871.94;;;8.98;93.35
74075;BME280;62428;51.412;5.432;2023-02-19T05:02:06;101875.16;;;8.95;93.30
74075;BME280;62428;51.412;5.432;2023-02-19T05:04:32;101878.88;;;8.94;93.59
74075;BME280;62428;51.412;5.432;2023-02-19T05:06:57;101885.31;;;8.93;94.30
74075;BME280;62428;51.412;5.432;2023-02-19T05:09:22;101892.78;;;8.91;94.62
74075;BME280;62428;51.412;5.432;2023-02-19T05:11:48;101892.22;;;8.89;94.78
74075;BME280;62428;51.412;5.432;2023-02-19T05:14:13;101892.75;;;8.85;95.06
74075;BME280;62428;51.412;5.432;2023-02-19T05:16:38;101903.97;;;8.82;95.73
74075;BME280;62428;51.412;5.432;2023-02-19T05:19:04;101915.19;;;8.79;95.98
74075;BME280;62428;51.412;5.432;2023-02-19T05:21:29;101910.91;;;8.78;96.01
74075;BME280;62428;51.412;5.432;2023-02-19T05:23:54;101918.41;;;8.76;96.08
74075;BME280;62428;51.412;5.432;2023-02-19T05:26:21;101913.03;;;8.76;96.06
74075;BME280;62428;51.412;5.432;2023-02-19T05:28:49;101914.34;;;8.74;96.22
74075;BME280;62428;51.412;5.432;2023-02-19T05:31:15;101915.13;;;8.74;96.35
74075;BME280;62428;51.412;5.432;2023-02-19T05:33:41;101917.00;;;8.74;96.23
74075;BME280;62428;51.412;5.432;2023-02-19T05:36:12;101912.75;;;8.73;96.12
74075;BME280;62428;51.412;5.432;2023-02-19T05:38:38;101912.97;;;8.71;96.17
74075;BME280;62428;51.412;5.432;2023-02-19T05:41:23;101921.28;;;8.70;96.15
74075;BME280;62428;51.412;5.432;2023-02-19T05:43:49;101922.31;;;8.69;96.11
74075;BME280;62428;51.412;5.432;2023-02-19T05:46:17;101927.69;;;8.69;96.53
74075;BME280;62428;51.412;5.432;2023-02-19T05:48:44;101929.81;;;8.66;96.14
74075;BME280;62428;51.412;5.432;2023-02-19T05:51:12;101920.41;;;8.64;96.42
74075;BME280;62428;51.412;5.432;2023-02-19T05:53:38;101933.00;;;8.63;96.42
74075;BME280;62428;51.412;5.432;2023-02-19T05:56:03;101935.69;;;8.63;96.30
74075;BME280;62428;51.412;5.432;2023-02-19T05:58:29;101931.38;;;8.62;96.37
74075;BME280;62428;51.412;5.432;2023-02-19T06:00:55;101932.41;;;8.61;96.26
74075;BME280;62428;51.412;5.432;2023-02-19T06:03:20;101930.81;;;8.60;96.45
74075;BME280;62428;51.412;5.432;2023-02-19T06:05:46;101926.50;;;8.59;95.99
74075;BME280;62428;51.412;5.432;2023-02-19T06:08:12;101931.31;;;8.57;96.39
74075;BME280;62428;51.412;5.432;2023-02-19T06:10:38;101932.38;;;8.56;96.25
74075;BME280;62428;51.412;5.432;2023-02-19T06:13:07;101928.06;;;8.55;96.04
74075;BME280;62428;51.412;5.432;2023-02-19T06:15:33;101926.47;;;8.54;95.89
74075;BME280;62428;51.412;5.432;2023-02-19T06:17:59;101925.66;;;8.54;96.05
74075;BME280;62428;51.412;5.432;2023-02-19T06:20:24;101929.16;;;8.54;96.14
74075;BME280;62428;51.412;5.432;2023-02-19T06:22:50;101932.09;;;8.53;96.05
74075;BME280;62428;51.412;5.432;2023-02-19T06:25:16;101938.47;;;8.52;96.24
74075;BME280;62428;51.412;5.432;2023-02-19T06:27:42;101946.53;;;8.52;96.01
74075;BME280;62428;51.412;5.432;2023-02-19T06:30:08;101947.31;;;8.52;95.84
74075;BME280;62428;51.412;5.432;2023-02-19T06:32:33;101947.59;;;8.51;95.63
74075;BME280;62428;51.412;5.432;2023-02-19T06:34:59;101953.75;;;8.51;95.00
74075;BME280;62428;51.412;5.432;2023-02-19T06:37:24;101948.41;;;8.51;95.33
74075;BME280;62428;51.412;5.432;2023-02-19T06:39:49;101960.16;;;8.50;95.63
74075;BME280;62428;51.412;5.432;2023-02-19T06:42:15;101958.31;;;8.51;95.28
74075;BME280;62428;51.412;5.432;2023-02-19T06:44:40;101961.00;;;8.51;95.47
74075;BME280;62428;51.412;5.432;2023-02-19T06:47:06;101975.97;;;8.52;95.01
74075;BME280;62428;51.412;5.432;2023-02-19T06:49:31;101984.81;;;8.52;95.29
74075;BME280;62428;51.412;5.432;2023-02-19T06:51:56;101984.81;;;8.52;94.92
74075;BME280;62428;51.412;5.432;2023-02-19T06:54:23;101991.00;;;8.53;94.66
74075;BME280;62428;51.412;5.432;2023-02-19T06:56:50;101989.94;;;8.54;94.70
74075;BME280;62428;51.412;5.432;2023-02-19T06:59:15;101993.44;;;8.54;94.48
74075;BME280;62428;51.412;5.432;2023-02-19T07:01:41;101996.38;;;8.53;93.78
74075;BME280;62428;51.412;5.432;2023-02-19T07:04:06;101988.31;;;8.53;93.95
74075;BME280;62428;51.412;5.432;2023-02-19T07:06:32;101990.19;;;8.52;93.54
74075;BME280;62428;51.412;5.432;2023-02-19T07:08:58;101996.38;;;8.53;94.04
74075;BME280;62428;51.412;5.432;2023-02-19T07:11:24;101996.38;;;8.53;94.16
74075;BME280;62428;51.412;5.432;2023-02-19T07:13:57;102004.16;;;8.54;94.14
74075;BME280;62428;51.412;5.432;2023-02-19T07:16:23;102003.09;;;8.55;94.02
74075;BME280;62428;51.412;5.432;2023-02-19T07:18:49;102007.13;;;8.58;93.86
74075;BME280;62428;51.412;5.432;2023-02-19T07:21:15;102016.78;;;8.59;93.81
74075;BME280;62428;51.412;5.432;2023-02-19T07:23:42;102015.97;;;8.58;93.71
74075;BME280;62428;51.412;5.432;2023-02-19T07:26:12;102018.41;;;8.60;94.04
74075;BME280;62428;51.412;5.432;2023-02-19T07:28:46;102023.50;;;8.61;94.01
74075;BME280;62428;51.412;5.432;2023-02-19T07:31:12;102033.66;;;8.59;94.62
74075;BME280;62428;51.412;5.432;2023-02-19T07:33:38;102035.78;;;8.57;94.86
74075;BME280;62428;51.412;5.432;2023-02-19T07:36:06;102044.06;;;8.56;95.25
74075;BME280;62428;51.412;5.432;2023-02-19T07:38:31;102043.50;;;8.54;95.76
74075;BME280;62428;51.412;5.432;2023-02-19T07:40:58;102048.31;;;8.52;95.96
74075;BME280;62428;51.412;5.432;2023-02-19T07:43:26;102049.38;;;8.51;96.38
74075;BME280;62428;51.412;5.432;2023-02-19T07:45:52;102055.47;;;8.46;96.72
74075;BME280;62428;51.412;5.432;2023-02-19T07:48:17;102066.19;;;8.46;96.86
74075;BME280;62428;51.412;5.432;2023-02-19T07:50:53;102071.78;;;8.44;97.16
74075;BME280;62428;51.412;5.432;2023-02-19T07:53:19;102075.53;;;8.43;97.51
74075;BME280;62428;51.412;5.432;2023-02-19T07:55:45;102075.78;;;8.42;97.68
74075;BME280;62428;51.412;5.432;2023-02-19T07:58:10;102087.28;;;8.42;97.88
74075;BME280;62428;51.412;5.432;2023-02-19T08:00:35;102086.47;;;8.42;98.05
74075;BME280;62428;51.412;5.432;2023-02-19T08:03:01;102100.09;;;8.40;98.26
74075;BME280;62428;51.412;5.432;2023-02-19T08:05:32;102097.09;;;8.37;98.58
74075;BME280;62428;51.412;5.432;2023-02-19T08:07:58;102109.91;;;8.35;98.90
74075;BME280;62428;51.412;5.432;2023-02-19T08:10:24;102112.59;;;8.35;99.16
74075;BME280;62428;51.412;5.432;2023-02-19T08:13:11;102112.84;;;8.33;99.36
74075;BME280;62428;51.412;5.432;2023-02-19T08:18:29;102120.88;;;8.33;99.56
74075;BME280;62428;51.412;5.432;2023-02-19T08:20:55;102125.97;;;8.35;99.58
74075;BME280;62428;51.412;5.432;2023-02-19T08:23:21;102126.53;;;8.37;99.65
74075;BME280;62428;51.412;5.432;2023-02-19T08:25:48;102135.13;;;8.39;99.66
74075;BME280;62428;51.412;5.432;2023-02-19T08:28:13;102135.69;;;8.41;99.65
74075;BME280;62428;51.412;5.432;2023-02-19T08:30:40;102137.13;;;8.43;99.82
74075;BME280;62428;51.412;5.432;2023-02-19T08:33:09;102143.84;;;8.46;99.59
74075;BME280;62428;51.412;5.432;2023-02-19T08:35:35;102143.59;;;8.48;99.77
74075;BME280;62428;51.412;5.432;2023-02-19T08:38:01;102145.81;;;8.51;99.50
74075;BME280;62428;51.412;5.432;2023-02-19T08:40:27;102146.59;;;8.51;99.45
74075;BME280;62428;51.412;5.432;2023-02-19T08:42:52;102143.69;;;8.53;99.59
74075;BME280;62428;51.412;5.432;2023-02-19T08:45:18;102142.63;;;8.54;99.37
74075;BME280;62428;51.412;5.432;2023-02-19T08:47:44;102140.78;;;8.54;99.23
74075;BME280;62428;51.412;5.432;2023-02-19T08:50:09;102140.50;;;8.56;99.27
74075;BME280;62428;51.412;5.432;2023-02-19T08:52:35;102156.09;;;8.59;98.76
74075;BME280;62428;51.412;5.432;2023-02-19T08:55:05;102155.03;;;8.60;98.62
74075;BME280;62428;51.412;5.432;2023-02-19T08:57:30;102144.88;;;8.62;98.64
74075;BME280;62428;51.412;5.432;2023-02-19T08:59:56;102152.94;;;8.62;99.23
74075;BME280;62428;51.412;5.432;2023-02-19T09:02:22;102146.50;;;8.63;99.28
74075;BME280;62428;51.412;5.432;2023-02-19T09:04:48;102156.16;;;8.64;99.09
74075;BME280;62428;51.412;5.432;2023-02-19T09:07:14;102168.75;;;8.63;99.53
74075;BME280;62428;51.412;5.432;2023-02-19T09:09:39;102171.16;;;8.65;99.33
74075;BME280;62428;51.412;5.432;2023-02-19T09:12:10;102183.75;;;8.64;99.40
74075;BME280;62428;51.412;5.432;2023-02-19T09:14:36;102180.84;;;8.66;99.10
74075;BME280;62428;51.412;5.432;2023-02-19T09:17:03;102177.38;;;8.65;98.94
74075;BME280;62428;51.412;5.432;2023-02-19T09:19:30;102177.91;;;8.68;99.09
74075;BME280;62428;51.412;5.432;2023-02-19T09:21:56;102170.22;;;8.71;99.05
74075;BME280;62428;51.412;5.432;2023-02-19T09:24:22;102165.97;;;8.75;99.35
74075;BME280;62428;51.412;5.432;2023-02-19T09:26:48;102170.84;;;8.78;98.57
74075;BME280;62428;51.412;5.432;2023-02-19T09:29:14;102174.66;;;8.82;98.31
74075;BME280;62428;51.412;5.432;2023-02-19T09:31:40;102172.75;;;8.83;97.37
74075;BME280;62428;51.412;5.432;2023-02-19T09:34:05;102175.22;;;8.84;98.01
74075;BME280;62428;51.412;5.432;2023-02-19T09:36:30;102170.41;;;8.87;98.22
74075;BME280;62428;51.412;5.432;2023-02-19T09:38:58;102173.09;;;8.87;97.90
74075;BME280;62428;51.412;5.432;2023-02-19T09:41:55;102180.63;;;8.90;97.77
74075;BME280;62428;51.412;5.432;2023-02-19T09:44:28;102187.03;;;8.89;97.58
74075;BME280;62428;51.412;5.432;2023-02-19T09:46:55;102181.19;;;8.92;97.50
74075;BME280;62428;51.412;5.432;2023-02-19T09:54:25;102190.44;;;9.01;97.33
74075;BME280;62428;51.412;5.432;2023-02-19T09:56:56;102204.72;;;9.07;97.18
74075;BME280;62428;51.412;5.432;2023-02-19T09:59:28;102221.91;;;9.11;96.41
74075;BME280;62428;51.412;5.432;2023-02-19T10:02:08;102221.69;;;9.12;96.63
74075;BME280;62428;51.412;5.432;2023-02-19T10:04:38;102227.34;;;9.16;95.59
74075;BME280;62428;51.412;5.432;2023-02-19T10:07:10;102233.88;;;9.20;95.90
74075;BME280;62428;51.412;5.432;2023-02-19T10:09:37;102235.00;;;9.24;95.13
74075;BME280;62428;51.412;5.432;2023-02-19T10:12:10;102236.34;;;9.27;95.46
74075;BME280;62428;51.412;5.432;2023-02-19T10:14:42;102238.31;;;9.31;95.88
74075;BME280;62428;51.412;5.432;2023-02-19T10:17:18;102248.78;;;9.33;95.21
74075;BME280;62428;51.412;5.432;2023-02-19T10:19:45;102238.06;;;9.33;94.50
74075;BME280;62428;51.412;5.432;2023-02-19T10:22:12;102243.16;;;9.34;95.02
74075;BME280;62428;51.412;5.432;2023-02-19T10:24:39;102255.19;;;9.32;94.57
74075;BME280;62428;51.412;5.432;2023-02-19T10:27:13;102258.44;;;9.34;94.22
74075;BME280;62428;51.412;5.432;2023-02-19T10:29:39;102261.44;;;9.37;93.49
74075;BME280;62428;51.412;5.432;2023-02-19T10:32:19;102262.78;;;9.40;94.62
74075;BME280;62428;51.412;5.432;2023-02-19T10:35:06;102267.19;;;9.46;95.20
74075;BME280;62428;51.412;5.432;2023-02-19T10:37:32;102262.94;;;9.50;93.61
74075;BME280;62428;51.412;5.432;2023-02-19T10:39:59;102278.53;;;9.53;93.98
74075;BME280;62428;51.412;5.432;2023-02-19T10:42:24;102289.84;;;9.55;93.61
74075;BME280;62428;51.412;5.432;2023-02-19T10:44:55;102302.75;;;9.58;93.76
74075;BME280;62428;51.412;5.432;2023-02-19T10:47:25;102301.69;;;9.59;94.04
74075;BME280;62428;51.412;5.432;2023-02-19T10:49:52;102308.13;;;9.58;92.01
74075;BME280;62428;51.412;5.432;2023-02-19T10:52:32;102310.75;;;9.53;93.22
74075;BME280;62428;51.412;5.432;2023-02-19T10:57:43;102324.09;;;9.48;92.46
74075;BME280;62428;51.412;5.432;2023-02-19T11:02:40;102319.09;;;9.57;91.45
74075;BME280;62428;51.412;5.432;2023-02-19T11:07:49;102319.03;;;9.74;93.45
74075;BME280;62428;51.412;5.432;2023-02-19T11:10:33;102322.41;;;9.86;92.71
74075;BME280;62428;51.412;5.432;2023-02-19T11:13:03;102310.28;;;10.06;91.66
74075;BME280;62428;51.412;5.432;2023-02-19T11:15:34;102308.47;;;10.11;90.61
74075;BME280;62428;51.412;5.432;2023-02-19T11:20:45;102314.66;;;10.12;90.31
74075;BME280;62428;51.412;5.432;2023-02-19T11:23:23;102306.03;;;10.10;90.93
74075;BME280;62428;51.412;5.432;2023-02-19T11:25:50;102314.09;;;10.10;90.51
74075;BME280;62428;51.412;5.432;2023-02-19T11:30:48;102301.63;;;10.26;91.02
74075;BME280;62428;51.412;5.432;2023-02-19T11:33:20;102298.66;;;10.49;89.01
74075;BME280;62428;51.412;5.432;2023-02-19T11:35:48;102297.16;;;10.64;87.96
74075;BME280;62428;51.412;5.432;2023-02-19T11:38:16;102298.06;;;10.74;88.62
74075;BME280;62428;51.412;5.432;2023-02-19T11:46:03;102305.28;;;11.06;84.93
74075;BME280;62428;51.412;5.432;2023-02-19T11:48:39;102289.66;;;11.03;83.68
74075;BME280;62428;51.412;5.432;2023-02-19T11:51:21;102289.66;;;11.03;85.08
74075;BME280;62428;51.412;5.432;2023-02-19T11:54:17;102295.25;;;10.96;84.51
74075;BME280;62428;51.412;5.432;2023-02-19T11:57:00;102298.75;;;10.92;85.14
74075;BME280;62428;51.412;5.432;2023-02-19T11:59:44;102296.06;;;10.92;85.41
74075;BME280;62428;51.412;5.432;2023-02-19T12:02:26;102290.84;;;10.80;83.99
74075;BME280;62428;51.412;5.432;2023-02-19T12:10:27;102300.94;;;11.00;84.12
74075;BME280;62428;51.412;5.432;2023-02-19T12:18:42;102280.31;;;10.73;84.32
74075;BME280;62428;51.412;5.432;2023-02-19T12:21:24;102286.41;;;10.64;83.92
74075;BME280;62428;51.412;5.432;2023-02-19T12:26:46;102279.28;;;10.47;84.99
74075;BME280;62428;51.412;5.432;2023-02-19T12:33:10;102279.50;;;10.41;83.32
74075;BME280;62428;51.412;5.432;2023-02-19T12:38:02;102284.84;;;10.35;83.27
74075;BME280;62428;51.412;5.432;2023-02-19T12:43:20;102287.56;;;10.41;82.64
74075;BME280;62428;51.412;5.432;2023-02-19T12:45:57;102286.78;;;10.45;82.58
74075;BME280;62428;51.412;5.432;2023-02-19T12:51:10;102282.56;;;10.54;82.81
74075;BME280;62428;51.412;5.432;2023-02-19T12:56:38;102287.09;;;10.49;82.73
74075;BME280;62428;51.412;5.432;2023-02-19T12:59:12;102290.50;;;10.39;81.47
74075;BME280;62428;51.412;5.432;2023-02-19T13:01:45;102299.00;;;10.31;81.29
74075;BME280;62428;51.412;5.432;2023-02-19T13:04:27;102291.19;;;10.29;81.96
74075;BME280;62428;51.412;5.432;2023-02-19T13:07:08;102302.53;;;10.31;81.68
74075;BME280;62428;51.412;5.432;2023-02-19T13:12:33;102310.63;;;10.36;80.83
74075;BME280;62428;51.412;5.432;2023-02-19T13:15:31;102309.06;;;10.41;80.86
74075;BME280;62428;51.412;5.432;2023-02-19T13:17:59;102318.47;;;10.43;80.44
74075;BME280;62428;51.412;5.432;2023-02-19T13:20:37;102321.00;;;10.55;79.34
74075;BME280;62428;51.412;5.432;2023-02-19T13:23:07;102318.47;;;10.70;78.09
74075;BME280;62428;51.412;5.432;2023-02-19T13:34:04;102312.81;;;10.39;78.61
74075;BME280;62428;51.412;5.432;2023-02-19T13:36:34;102321.34;;;10.31;78.69
74075;BME280;62428;51.412;5.432;2023-02-19T13:39:04;102325.28;;;10.29;79.19
74075;BME280;62428;51.412;5.432;2023-02-19T13:41:39;102329.56;;;10.25;80.04
74075;BME280;62428;51.412;5.432;2023-02-19T13:44:12;102331.69;;;10.23;79.13
74075;BME280;62428;51.412;5.432;2023-02-19T13:46:42;102343.72;;;10.20;79.39
74075;BME280;62428;51.412;5.432;2023-02-19T13:51:52;102338.03;;;10.11;79.03
74075;BME280;62428;51.412;5.432;2023-02-19T13:54:27;102344.38;;;10.05;79.41
74075;BME280;62428;51.412;5.432;2023-02-19T13:59:46;102368.16;;;9.96;78.34
74075;BME280;62428;51.412;5.432;2023-02-19T14:02:31;102388.78;;;9.91;nan
74075;BME280;62428;51.412;5.432;2023-02-19T14:05:05;102383.03;;;9.82;79.13
74075;BME280;62428;51.412;5.432;2023-02-19T14:07:34;102382.09;;;9.71;77.77
74075;BME280;62428;51.412;5.432;2023-02-19T14:10:00;102385.66;;;9.60;77.49
74075;BME280;62428;51.412;5.432;2023-02-19T14:12:34;102391.47;;;9.52;79.80
74075;BME280;62428;51.412;5.432;2023-02-19T14:21:16;102405.31;;;9.27;80.26
74075;BME280;62428;51.412;5.432;2023-02-19T14:23:42;102406.63;;;9.24;80.33
74075;BME280;62428;51.412;5.432;2023-02-19T14:26:08;102404.91;;;9.18;79.77
74075;BME280;62428;51.412;5.432;2023-02-19T14:28:40;102408.81;;;9.10;81.39
74075;BME280;62428;51.412;5.432;2023-02-19T14:31:26;102420.28;;;9.06;81.31
74075;BME280;62428;51.412;5.432;2023-02-19T14:33:55;102410.25;;;9.01;80.74
74075;BME280;62428;51.412;5.432;2023-02-19T14:41:37;102413.97;;;8.83;82.73
74075;BME280;62428;51.412;5.432;2023-02-19T14:44:11;102411.63;;;8.87;81.72
74075;BME280;62428;51.412;5.432;2023-02-19T14:46:49;102405.69;;;8.84;82.27
74075;BME280;62428;51.412;5.432;2023-02-19T14:51:56;102408.78;;;8.76;82.99
74075;BME280;62428;51.412;5.432;2023-02-19T14:54:43;102408.19;;;8.74;83.19
74075;BME280;62428;51.412;5.432;2023-02-19T14:57:18;102404.69;;;8.74;82.97
74075;BME280;62428;51.412;5.432;2023-02-19T14:59:52;102409.50;;;8.72;83.26
74075;BME280;62428;51.412;5.432;2023-02-19T15:02:19;102403.00;;;8.68;83.32
74075;BME280;62428;51.412;5.432;2023-02-19T15:04:45;102411.25;;;8.66;83.31